Time;durP1;ratioP1;P1;durP2;ratioP2;P2;SDS_P1;SDS_P2;PMS_P1;PMS_P2;Temp;Humidity;BMP_temperature;BMP_pressure;BME280_temperature;BME280_humidity;BME280_pressure;Samples;Min_cycle;Max_cycle;Signal;HPM_P1;HPM_P2
2022/03/08 00:01:21;;;;;;;;;;;3.40;95.10;;;;;;5053708;28;19909;-78
2022/03/08 00:03:46;;;;;;;;;;;3.40;95.30;;;;;;5053654;28;19908;-78
2022/03/08 00:06:12;;;;;;;;;;;3.50;95.20;;;;;;5052167;28;19909;-78
2022/03/08 00:08:37;;;;;;;;;;;3.40;95.70;;;;;;5052190;28;20288;-78
2022/03/08 00:11:03;;;;;;;;;;;3.30;96.00;;;;;;5053435;28;19923;-78
2022/03/08 00:13:29;;;;;;;;;;;3.30;96.10;;;;;;5053398;28;19916;-78
2022/03/08 00:15:55;;;;;;;;;;;3.40;95.90;;;;;;5053428;28;19991;-78
2022/03/08 00:18:20;;;;;;;;;;;3.30;96.20;;;;;;5053318;28;20392;-78
2022/03/08 00:20:46;;;;;;;;;;;3.10;96.40;;;;;;5053686;28;19916;-78
2022/03/08 00:23:11;;;;;;;;;;;3.30;96.70;;;;;;5053609;28;19936;-78
2022/03/08 00:25:37;;;;;;;;;;;3.20;96.80;;;;;;5053231;28;19912;-78
2022/03/08 00:28:03;;;;;;;;;;;3.20;96.90;;;;;;5053273;28;19916;-78
2022/03/08 00:30:29;;;;;;;;;;;3.20;97.10;;;;;;5053163;28;20449;-78
2022/03/08 00:32:55;;;;;;;;;;;3.10;97.20;;;;;;5051941;28;19916;-78
2022/03/08 00:35:21;;;;;;;;;;;3.10;97.40;;;;;;5053361;28;19999;-78
2022/03/08 00:37:48;;;;;;;;;;;3.00;97.70;;;;;;5052917;28;19921;-78
2022/03/08 00:40:14;;;;;;;;;;;3.20;97.50;;;;;;5053157;28;19913;-78
2022/03/08 00:42:39;;;;;;;;;;;3.10;97.50;;;;;;5051854;28;19913;-78
2022/03/08 00:45:09;;;;;;;;;;;3.10;97.50;;;;;;5053130;28;20388;-78
2022/03/08 00:47:41;;;;;;;;;;;3.10;97.60;;;;;;5053875;28;19909;-78
2022/03/08 00:50:12;;;;;;;;;;;3.20;97.70;;;;;;5057000;28;19963;-78
2022/03/08 00:52:37;;;;;;;;;;;3.10;97.90;;;;;;5056781;28;19916;-78
2022/03/08 00:55:04;;;;;;;;;;;3.20;97.80;;;;;;5055390;28;19913;-78
2022/03/08 00:57:30;;;;;;;;;;;3.10;97.70;;;;;;5056649;28;19913;-78
2022/03/08 00:59:55;;;;;;;;;;;3.20;97.90;;;;;;5055314;28;19909;-78
2022/03/08 01:02:21;;;;;;;;;;;3.20;97.90;;;;;;5055266;28;19915;-78
2022/03/08 01:04:47;;;;;;;;;;;3.20;98.00;;;;;;5055297;28;19991;-78
2022/03/08 01:07:14;;;;;;;;;;;3.10;98.30;;;;;;5055198;28;19909;-78
2022/03/08 01:09:39;;;;;;;;;;;3.10;98.30;;;;;;5056390;28;20368;-78
2022/03/08 01:12:05;;;;;;;;;;;3.10;98.20;;;;;;5056392;28;19909;-78
2022/03/08 01:14:31;;;;;;;;;;;3.10;98.50;;;;;;5056510;28;19909;-78
2022/03/08 01:16:56;;;;;;;;;;;3.10;98.60;;;;;;5056331;28;19915;-78
2022/03/08 01:19:22;;;;;;;;;;;3.00;98.70;;;;;;5056259;28;19996;-78
2022/03/08 01:21:47;;;;;;;;;;;3.00;98.80;;;;;;5056555;28;19920;-78
2022/03/08 01:24:13;;;;;;;;;;;3.00;98.80;;;;;;5056517;28;19916;-78
2022/03/08 01:26:38;;;;;;;;;;;3.00;98.90;;;;;;5056270;28;19932;-78
2022/03/08 01:29:04;;;;;;;;;;;3.00;99.00;;;;;;5056053;28;19916;-78
2022/03/08 01:31:30;;;;;;;;;;;3.10;99.00;;;;;;5056058;28;19909;-78
2022/03/08 01:33:57;;;;;;;;;;;3.00;99.20;;;;;;5054755;28;20382;-78
2022/03/08 01:36:23;;;;;;;;;;;3.00;99.20;;;;;;5055778;28;19916;-78
2022/03/08 01:38:49;;;;;;;;;;;3.10;99.30;;;;;;5054423;28;19996;-78
2022/03/08 01:41:15;;;;;;;;;;;3.10;99.30;;;;;;5055885;28;20398;-78
2022/03/08 01:43:41;;;;;;;;;;;3.10;99.40;;;;;;5056036;28;19908;-78
2022/03/08 01:46:07;;;;;;;;;;;3.00;99.60;;;;;;5054451;28;20284;-78
2022/03/08 01:48:32;;;;;;;;;;;3.00;99.80;;;;;;5055826;28;19909;-78
2022/03/08 01:50:58;;;;;;;;;;;3.00;99.90;;;;;;5055657;28;19913;-78
2022/03/08 01:53:24;;;;;;;;;;;2.90;99.90;;;;;;5054291;28;19917;-78
2022/03/08 01:55:50;;;;;;;;;;;2.90;99.90;;;;;;5055586;28;20433;-78
2022/03/08 01:58:15;;;;;;;;;;;3.00;99.90;;;;;;5055786;28;19909;-78
2022/03/08 02:00:41;;;;;;;;;;;2.90;99.90;;;;;;5054743;28;19959;-78
2022/03/08 02:03:07;;;;;;;;;;;2.90;99.90;;;;;;5055114;28;20012;-78
2022/03/08 02:05:32;;;;;;;;;;;2.90;99.90;;;;;;5055371;28;20280;-78
2022/03/08 02:07:58;;;;;;;;;;;2.80;99.90;;;;;;5055852;28;19992;-78
2022/03/08 02:10:23;;;;;;;;;;;2.90;99.90;;;;;;5055606;28;20312;-78
2022/03/08 02:12:49;;;;;;;;;;;2.90;99.90;;;;;;5055558;28;19930;-78
2022/03/08 02:15:16;;;;;;;;;;;3.00;99.90;;;;;;5055477;28;20326;-78
2022/03/08 02:17:42;;;;;;;;;;;3.00;99.90;;;;;;5055245;28;19909;-78
2022/03/08 02:20:07;;;;;;;;;;;3.10;99.90;;;;;;5055403;28;20042;-78
2022/03/08 02:22:33;;;;;;;;;;;3.20;99.90;;;;;;5053795;28;19978;-78
2022/03/08 02:24:59;;;;;;;;;;;3.20;99.90;;;;;;5055106;28;19915;-79
2022/03/08 02:27:24;;;;;;;;;;;3.30;99.90;;;;;;5055038;28;19912;-78
2022/03/08 02:29:50;;;;;;;;;;;3.20;99.90;;;;;;5054885;28;20292;-78
2022/03/08 02:32:16;;;;;;;;;;;3.30;99.90;;;;;;5054892;28;19909;-78
2022/03/08 02:34:42;;;;;;;;;;;3.40;99.90;;;;;;5054834;28;19923;-78
2022/03/08 02:37:08;;;;;;;;;;;3.30;99.90;;;;;;5054719;28;19970;-78
2022/03/08 02:39:35;;;;;;;;;;;3.30;99.90;;;;;;5054819;28;19908;-78
2022/03/08 02:42:01;;;;;;;;;;;3.40;99.90;;;;;;5054662;28;19913;-78
2022/03/08 02:44:27;;;;;;;;;;;3.50;99.90;;;;;;5054832;28;19958;-78
2022/03/08 02:46:53;;;;;;;;;;;3.60;99.90;;;;;;5053352;28;19909;-78
2022/03/08 02:49:19;;;;;;;;;;;3.60;99.90;;;;;;5054462;28;19996;-78
2022/03/08 02:51:44;;;;;;;;;;;3.70;99.90;;;;;;5054558;28;19909;-78
2022/03/08 02:54:10;;;;;;;;;;;3.70;99.90;;;;;;5054701;28;19909;-78
2022/03/08 02:56:35;;;;;;;;;;;3.80;99.90;;;;;;5054583;28;19909;-79
2022/03/08 02:59:01;;;;;;;;;;;3.80;99.90;;;;;;5054446;28;20329;-79
2022/03/08 03:01:27;;;;;;;;;;;3.80;99.90;;;;;;5054429;28;19992;-78
2022/03/08 03:03:52;;;;;;;;;;;3.90;99.90;;;;;;5054311;28;20377;-78
2022/03/08 03:06:18;;;;;;;;;;;3.90;99.90;;;;;;5054498;28;19996;-78
2022/03/08 03:08:43;;;;;;;;;;;3.90;99.90;;;;;;5054509;28;19948;-78
2022/03/08 03:11:09;;;;;;;;;;;4.00;99.90;;;;;;5054067;28;19920;-78
2022/03/08 03:13:35;;;;;;;;;;;4.00;99.90;;;;;;5054115;28;19963;-78
2022/03/08 03:16:00;;;;;;;;;;;4.10;99.90;;;;;;5054568;28;19936;-79
2022/03/08 03:18:26;;;;;;;;;;;4.00;99.90;;;;;;5052820;28;19913;-78
2022/03/08 03:20:51;;;;;;;;;;;4.00;99.90;;;;;;5054005;28;19909;-78
2022/03/08 03:23:17;;;;;;;;;;;4.10;99.90;;;;;;5054029;28;19916;-78
2022/03/08 03:25:42;;;;;;;;;;;4.10;99.90;;;;;;5053916;28;20381;-78
2022/03/08 03:28:08;;;;;;;;;;;4.20;99.90;;;;;;5052621;28;19909;-78
2022/03/08 03:30:34;;;;;;;;;;;4.20;99.90;;;;;;5053752;28;19917;-78
2022/03/08 03:33:01;;;;;;;;;;;4.30;99.90;;;;;;5053997;28;19915;-79
2022/03/08 03:35:26;;;;;;;;;;;4.20;99.90;;;;;;5053777;28;19909;-78
2022/03/08 03:37:52;;;;;;;;;;;4.20;99.90;;;;;;5053593;28;19928;-79
2022/03/08 03:40:18;;;;;;;;;;;4.20;99.90;;;;;;5054143;28;20331;-78
2022/03/08 03:42:44;;;;;;;;;;;4.30;99.90;;;;;;5053744;28;19913;-78
2022/03/08 03:45:09;;;;;;;;;;;4.30;99.90;;;;;;5053646;28;19909;-78
2022/03/08 03:47:35;;;;;;;;;;;4.30;99.90;;;;;;5052340;28;19954;-79
2022/03/08 03:50:01;;;;;;;;;;;4.30;99.90;;;;;;5052294;28;19981;-79
2022/03/08 03:52:26;;;;;;;;;;;4.30;99.90;;;;;;5053578;28;20380;-79
2022/03/08 03:54:52;;;;;;;;;;;4.30;99.90;;;;;;5052243;28;19952;-78
2022/03/08 03:57:17;;;;;;;;;;;4.30;99.90;;;;;;5052241;28;20364;-78
2022/03/08 03:59:43;;;;;;;;;;;4.30;99.90;;;;;;5052284;28;19917;-78
2022/03/08 04:02:08;;;;;;;;;;;4.40;99.90;;;;;;5053539;28;19909;-79
2022/03/08 04:04:34;;;;;;;;;;;4.40;99.90;;;;;;5053481;28;19913;-78
2022/03/08 04:07:00;;;;;;;;;;;4.30;99.90;;;;;;5053828;28;19993;-78
2022/03/08 04:09:25;;;;;;;;;;;4.40;99.90;;;;;;5052101;28;19924;-78
2022/03/08 04:11:51;;;;;;;;;;;4.30;99.90;;;;;;5053475;28;19916;-78
2022/03/08 04:14:17;;;;;;;;;;;4.40;99.90;;;;;;5052109;28;19999;-78
2022/03/08 04:16:43;;;;;;;;;;;4.40;99.90;;;;;;5053400;28;19909;-78
2022/03/08 04:19:08;;;;;;;;;;;4.30;99.90;;;;;;5053494;28;20349;-78
2022/03/08 04:21:34;;;;;;;;;;;4.40;99.80;;;;;;5052049;28;19917;-78
2022/03/08 04:23:59;;;;;;;;;;;4.40;99.90;;;;;;5056701;28;19999;-78
2022/03/08 04:26:25;;;;;;;;;;;4.50;99.90;;;;;;5056021;28;19909;-78
2022/03/08 04:28:51;;;;;;;;;;;4.50;99.90;;;;;;5057265;28;19909;-78
2022/03/08 04:31:17;;;;;;;;;;;4.40;99.70;;;;;;5057455;28;19920;-78
2022/03/08 04:33:44;;;;;;;;;;;4.50;99.90;;;;;;5057253;28;19908;-78
2022/03/08 04:36:10;;;;;;;;;;;4.40;99.90;;;;;;5057231;28;19909;-78
2022/03/08 04:38:35;;;;;;;;;;;4.40;99.90;;;;;;5056608;28;20367;-79
2022/03/08 04:41:02;;;;;;;;;;;4.30;99.90;;;;;;5057044;28;19913;-78
2022/03/08 04:43:30;;;;;;;;;;;4.30;99.90;;;;;;5057091;28;19948;-78
2022/03/08 04:45:56;;;;;;;;;;;4.40;99.90;;;;;;5057057;28;19958;-78
2022/03/08 04:48:22;;;;;;;;;;;4.40;99.90;;;;;;5056889;28;19909;-78
2022/03/08 04:50:47;;;;;;;;;;;4.40;99.90;;;;;;5056778;28;19913;-78
2022/03/08 04:53:13;;;;;;;;;;;4.30;99.90;;;;;;5055481;28;19912;-78
2022/03/08 04:55:38;;;;;;;;;;;4.30;99.90;;;;;;5056824;28;20289;-78
2022/03/08 04:58:04;;;;;;;;;;;4.30;99.90;;;;;;5055400;28;20368;-78
2022/03/08 05:00:30;;;;;;;;;;;4.30;99.90;;;;;;5056658;28;19909;-78
2022/03/08 05:02:55;;;;;;;;;;;4.40;99.90;;;;;;5055300;28;19944;-78
2022/03/08 05:05:21;;;;;;;;;;;4.40;99.90;;;;;;5055278;28;19916;-78
2022/03/08 05:07:46;;;;;;;;;;;4.40;99.90;;;;;;5056522;28;19959;-78
2022/03/08 05:10:12;;;;;;;;;;;4.40;99.90;;;;;;5056825;28;20008;-78
2022/03/08 05:12:38;;;;;;;;;;;4.30;99.90;;;;;;5056406;28;20014;-78
2022/03/08 05:15:04;;;;;;;;;;;4.30;99.90;;;;;;5056428;28;20001;-78
2022/03/08 05:17:30;;;;;;;;;;;4.30;99.90;;;;;;5055139;28;19916;-78
2022/03/08 05:19:56;;;;;;;;;;;4.40;99.90;;;;;;5055002;28;19910;-79
2022/03/08 05:22:22;;;;;;;;;;;4.50;99.90;;;;;;5056376;28;19913;-78
2022/03/08 05:24:47;;;;;;;;;;;4.50;99.90;;;;;;5056192;28;19948;-78
2022/03/08 05:27:13;;;;;;;;;;;4.50;99.90;;;;;;5056173;28;20060;-79
2022/03/08 05:29:39;;;;;;;;;;;4.50;99.90;;;;;;5056052;28;19913;-78
2022/03/08 05:32:05;;;;;;;;;;;4.60;99.90;;;;;;5056230;28;19916;-78
2022/03/08 05:34:30;;;;;;;;;;;4.50;99.90;;;;;;5054677;28;20046;-79
2022/03/08 05:36:56;;;;;;;;;;;4.50;99.90;;;;;;5054513;28;19970;-78
2022/03/08 05:39:22;;;;;;;;;;;4.50;99.90;;;;;;5056026;28;20007;-78
2022/03/08 05:41:48;;;;;;;;;;;4.50;99.90;;;;;;5056088;28;19916;-78
2022/03/08 05:44:13;;;;;;;;;;;4.60;99.90;;;;;;5054606;28;19999;-78
2022/03/08 05:46:39;;;;;;;;;;;4.50;99.90;;;;;;5055936;28;19916;-78
2022/03/08 05:49:04;;;;;;;;;;;4.40;99.90;;;;;;5055803;28;19909;-78
2022/03/08 05:51:30;;;;;;;;;;;4.40;99.90;;;;;;5055691;28;19920;-78
2022/03/08 05:53:55;;;;;;;;;;;4.40;99.90;;;;;;5055690;28;19909;-78
2022/03/08 05:56:21;;;;;;;;;;;4.40;99.90;;;;;;5055662;28;19948;-78
2022/03/08 05:58:47;;;;;;;;;;;4.40;99.90;;;;;;5055597;28;19935;-78
2022/03/08 06:01:12;;;;;;;;;;;4.40;99.90;;;;;;5055638;28;19912;-78
2022/03/08 06:03:38;;;;;;;;;;;4.40;99.90;;;;;;5055524;28;19962;-78
2022/03/08 06:06:04;;;;;;;;;;;4.30;99.90;;;;;;5055418;28;20399;-78
2022/03/08 06:08:29;;;;;;;;;;;4.40;99.90;;;;;;5055594;28;20000;-78
2022/03/08 06:10:55;;;;;;;;;;;4.40;99.90;;;;;;5055387;28;19962;-78
2022/03/08 06:13:21;;;;;;;;;;;4.40;99.90;;;;;;5055339;28;19908;-78
2022/03/08 06:15:46;;;;;;;;;;;4.30;99.90;;;;;;5055281;28;19909;-78
2022/03/08 06:18:12;;;;;;;;;;;4.30;99.90;;;;;;5055423;28;20281;-78
2022/03/08 06:20:38;;;;;;;;;;;4.30;99.90;;;;;;5055196;28;20007;-78
2022/03/08 06:23:04;;;;;;;;;;;4.30;99.90;;;;;;5055203;28;20025;-78
2022/03/08 06:25:29;;;;;;;;;;;4.30;99.90;;;;;;5055009;28;19909;-78
2022/03/08 06:27:55;;;;;;;;;;;4.30;99.90;;;;;;5055239;28;20258;-78
2022/03/08 06:30:21;;;;;;;;;;;4.30;99.90;;;;;;5054928;28;20012;-78
2022/03/08 06:32:46;;;;;;;;;;;4.30;99.90;;;;;;5054920;28;19915;-78
2022/03/08 06:35:13;;;;;;;;;;;4.30;99.90;;;;;;5055451;28;19970;-78
2022/03/08 06:37:38;;;;;;;;;;;4.40;99.90;;;;;;5054591;28;20289;-78
2022/03/08 06:40:05;;;;;;;;;;;4.40;99.90;;;;;;5054977;28;19909;-78
2022/03/08 06:42:30;;;;;;;;;;;4.40;99.90;;;;;;5054625;28;19909;-78
2022/03/08 06:44:56;;;;;;;;;;;4.50;99.90;;;;;;5054495;28;19909;-78
2022/03/08 06:47:21;;;;;;;;;;;4.40;99.90;;;;;;5054541;28;19909;-78
2022/03/08 06:49:47;;;;;;;;;;;4.50;99.90;;;;;;5053182;28;19913;-79
2022/03/08 06:52:13;;;;;;;;;;;4.50;99.90;;;;;;5053237;28;19916;-78
2022/03/08 06:54:40;;;;;;;;;;;4.50;99.90;;;;;;5054780;28;19967;-78
2022/03/08 06:57:06;;;;;;;;;;;4.60;99.90;;;;;;5053094;28;19916;-78
2022/03/08 06:59:32;;;;;;;;;;;4.60;99.90;;;;;;5054407;28;19952;-78
2022/03/08 07:01:57;;;;;;;;;;;4.60;99.90;;;;;;5054368;28;19962;-78
2022/03/08 07:04:23;;;;;;;;;;;4.60;99.90;;;;;;5054237;28;20280;-78
2022/03/08 07:06:49;;;;;;;;;;;4.60;99.90;;;;;;5054302;28;19909;-78
2022/03/08 07:09:15;;;;;;;;;;;4.70;99.90;;;;;;5052954;28;19912;-78
2022/03/08 07:11:40;;;;;;;;;;;4.70;99.90;;;;;;5052941;28;20420;-78
2022/03/08 07:14:06;;;;;;;;;;;4.80;99.90;;;;;;5054158;28;19931;-78
2022/03/08 07:16:31;;;;;;;;;;;4.80;99.90;;;;;;5054120;28;19958;-78
2022/03/08 07:18:57;;;;;;;;;;;4.90;99.90;;;;;;5054190;28;20003;-78
2022/03/08 07:21:23;;;;;;;;;;;5.00;99.90;;;;;;5052710;28;19916;-79
2022/03/08 07:23:48;;;;;;;;;;;5.00;99.90;;;;;;5054019;28;20408;-78
2022/03/08 07:26:14;;;;;;;;;;;5.00;99.90;;;;;;5054345;28;19909;-79
2022/03/08 07:28:40;;;;;;;;;;;5.10;99.90;;;;;;5054263;28;19913;-78
2022/03/08 07:31:05;;;;;;;;;;;5.20;99.90;;;;;;5052512;28;19920;-78
2022/03/08 07:33:31;;;;;;;;;;;5.20;99.90;;;;;;5053995;28;20007;-79
2022/03/08 07:35:57;;;;;;;;;;;5.20;99.90;;;;;;5052547;28;19955;-78
2022/03/08 07:38:22;;;;;;;;;;;5.30;99.90;;;;;;5053595;28;19928;-78
2022/03/08 07:40:48;;;;;;;;;;;5.30;99.90;;;;;;5053782;28;19983;-78
2022/03/08 07:43:14;;;;;;;;;;;5.50;99.90;;;;;;5053751;28;20359;-78
2022/03/08 07:45:39;;;;;;;;;;;5.60;99.90;;;;;;5053867;28;19908;-78
2022/03/08 07:48:05;;;;;;;;;;;5.60;99.90;;;;;;5053802;28;19955;-78
2022/03/08 07:50:32;;;;;;;;;;;5.70;99.90;;;;;;5053602;28;19913;-79
2022/03/08 07:52:59;;;;;;;;;;;5.80;99.90;;;;;;5053676;28;19944;-78
2022/03/08 07:55:32;;;;;;;;;;;5.80;99.90;;;;;;5053515;28;19908;-78
2022/03/08 07:57:58;;;;;;;;;;;6.00;99.90;;;;;;5052774;28;20339;-78
2022/03/08 08:00:24;;;;;;;;;;;6.00;99.90;;;;;;5053637;28;19967;-78
2022/03/08 08:02:49;;;;;;;;;;;6.00;99.90;;;;;;5053494;28;19908;-78
2022/03/08 08:05:16;;;;;;;;;;;6.10;99.90;;;;;;5053311;28;20429;-79
2022/03/08 08:07:42;;;;;;;;;;;6.10;99.90;;;;;;5051702;28;19912;-78
2022/03/08 08:10:08;;;;;;;;;;;6.10;99.90;;;;;;5051556;28;19913;-79
2022/03/08 08:12:34;;;;;;;;;;;6.10;99.90;;;;;;5053538;28;20430;-80
2022/03/08 08:15:04;;;;;;;;;;;6.10;99.90;;;;;;5053356;28;19909;-80
2022/03/08 08:17:30;;;;;;;;;;;6.10;99.90;;;;;;5052688;28;20011;-79
2022/03/08 08:19:56;;;;;;;;;;;6.10;99.90;;;;;;5052057;28;20288;-79
2022/03/08 08:22:21;;;;;;;;;;;6.10;99.90;;;;;;5053608;28;19909;-80
2022/03/08 08:24:47;;;;;;;;;;;6.10;99.90;;;;;;5053895;28;19908;-80
2022/03/08 08:27:13;;;;;;;;;;;6.20;99.90;;;;;;5053353;28;19912;-80
2022/03/08 08:29:38;;;;;;;;;;;6.20;99.90;;;;;;5053157;28;19913;-79
2022/03/08 08:32:04;;;;;;;;;;;6.30;99.90;;;;;;5052012;28;19912;-80
2022/03/08 08:34:29;;;;;;;;;;;6.30;99.90;;;;;;5052503;28;20340;-80
2022/03/08 08:36:55;;;;;;;;;;;6.50;99.90;;;;;;5053003;28;19960;-80
2022/03/08 08:39:21;;;;;;;;;;;6.60;99.90;;;;;;5053817;28;19908;-80
2022/03/08 08:41:46;;;;;;;;;;;6.70;99.90;;;;;;5051867;28;19999;-80
2022/03/08 08:44:12;;;;;;;;;;;6.70;99.90;;;;;;5053428;28;19909;-79
2022/03/08 08:46:38;;;;;;;;;;;6.70;99.90;;;;;;5051831;28;20434;-80
2022/03/08 08:49:04;;;;;;;;;;;6.90;99.90;;;;;;5053191;28;19999;-80
2022/03/08 08:51:30;;;;;;;;;;;7.00;99.90;;;;;;5053034;28;20361;-80
2022/03/08 08:53:56;;;;;;;;;;;7.20;99.90;;;;;;5053040;28;19909;-80
2022/03/08 08:56:22;;;;;;;;;;;7.30;99.90;;;;;;5053585;28;19908;-80
2022/03/08 08:58:48;;;;;;;;;;;7.30;99.90;;;;;;5053041;28;19909;-80
2022/03/08 09:01:13;;;;;;;;;;;7.40;99.90;;;;;;5052987;28;19916;-80
2022/03/08 09:03:39;;;;;;;;;;;7.40;99.90;;;;;;5053535;28;20349;-80
2022/03/08 09:06:04;;;;;;;;;;;7.60;99.90;;;;;;5052938;28;19918;-81
2022/03/08 09:08:30;;;;;;;;;;;7.60;99.90;;;;;;5054174;28;19952;-80
2022/03/08 09:10:56;;;;;;;;;;;7.70;99.90;;;;;;5056403;28;19917;-80
2022/03/08 09:13:22;;;;;;;;;;;7.80;99.90;;;;;;5056446;28;19958;-80
2022/03/08 09:15:48;;;;;;;;;;;7.80;99.90;;;;;;5056549;28;19909;-80
2022/03/08 09:18:14;;;;;;;;;;;7.80;99.90;;;;;;5056657;28;19913;-81
2022/03/08 09:20:39;;;;;;;;;;;8.10;99.90;;;;;;5056282;28;20285;-80
2022/03/08 09:23:06;;;;;;;;;;;8.30;99.90;;;;;;5054989;28;19909;-80
2022/03/08 09:25:32;;;;;;;;;;;8.30;99.90;;;;;;5056314;28;19915;-80
2022/03/08 09:27:58;;;;;;;;;;;8.20;99.90;;;;;;5056731;28;19916;-80
2022/03/08 09:30:24;;;;;;;;;;;8.30;99.90;;;;;;5054769;28;19939;-80
2022/03/08 09:32:50;;;;;;;;;;;8.50;99.90;;;;;;5056505;28;20364;-81
2022/03/08 09:35:16;;;;;;;;;;;8.70;99.90;;;;;;5056378;28;19940;-80
2022/03/08 09:37:42;;;;;;;;;;;8.90;99.90;;;;;;5055785;28;19928;-80
2022/03/08 09:40:08;;;;;;;;;;;9.10;99.60;;;;;;5055947;28;19947;-80
2022/03/08 09:42:34;;;;;;;;;;;9.30;99.20;;;;;;5056116;28;20295;-80
2022/03/08 09:44:59;;;;;;;;;;;9.50;99.00;;;;;;5054614;28;20004;-80
2022/03/08 09:47:25;;;;;;;;;;;9.70;98.70;;;;;;5056112;28;20258;-80
2022/03/08 09:49:51;;;;;;;;;;;9.50;98.40;;;;;;5056004;28;20007;-80
2022/03/08 09:52:19;;;;;;;;;;;9.80;99.10;;;;;;5055720;28;19954;-80
2022/03/08 09:54:45;;;;;;;;;;;10.10;97.90;;;;;;5054297;28;19913;-80
2022/03/08 09:57:12;;;;;;;;;;;10.30;97.80;;;;;;5054333;28;19931;-80
2022/03/08 09:59:37;;;;;;;;;;;10.80;96.90;;;;;;5055642;28;19909;-80
2022/03/08 10:02:03;;;;;;;;;;;10.90;96.50;;;;;;5055543;28;20049;-80
2022/03/08 10:04:29;;;;;;;;;;;11.10;95.80;;;;;;5055555;28;19994;-80
2022/03/08 10:06:56;;;;;;;;;;;10.90;96.60;;;;;;5055836;28;19916;-81
2022/03/08 10:09:22;;;;;;;;;;;10.50;96.60;;;;;;5054056;28;19909;-80
2022/03/08 10:11:55;;;;;;;;;;;10.10;96.90;;;;;;5055388;28;19959;-80
2022/03/08 10:14:36;;;;;;;;;;;10.20;98.10;;;;;;5055644;28;19955;-80
2022/03/08 10:17:02;;;;;;;;;;;10.20;97.40;;;;;;5055280;28;19955;-80
2022/03/08 10:19:28;;;;;;;;;;;9.90;98.30;;;;;;5055054;28;19944;-80
2022/03/08 10:21:55;;;;;;;;;;;10.30;99.00;;;;;;5054477;28;19917;-80
2022/03/08 10:24:21;;;;;;;;;;;10.30;97.80;;;;;;5055123;28;20323;-80
2022/03/08 10:26:55;;;;;;;;;;;10.20;98.20;;;;;;5053804;28;19916;-80
2022/03/08 10:29:28;;;;;;;;;;;10.10;98.20;;;;;;5054965;28;19909;-80
2022/03/08 10:32:16;;;;;;;;;;;10.30;98.70;;;;;;5055482;28;19916;-80
2022/03/08 10:34:43;;;;;;;;;;;10.50;98.30;;;;;;5053443;28;19909;-80
2022/03/08 10:37:13;;;;;;;;;;;10.60;98.50;;;;;;5054677;28;19920;-80
2022/03/08 10:39:55;;;;;;;;;;;10.60;98.40;;;;;;5053560;28;19951;-80
2022/03/08 10:42:24;;;;;;;;;;;10.70;98.50;;;;;;5054762;28;19958;-80
2022/03/08 10:44:50;;;;;;;;;;;10.60;99.10;;;;;;5053403;28;19916;-80
2022/03/08 10:47:17;;;;;;;;;;;10.70;99.30;;;;;;5054659;28;19909;-81
2022/03/08 10:49:48;;;;;;;;;;;10.70;99.20;;;;;;5054810;28;19913;-80
2022/03/08 10:52:14;;;;;;;;;;;10.90;99.30;;;;;;5054867;28;19935;-80
2022/03/08 10:54:39;;;;;;;;;;;11.10;99.50;;;;;;5054513;28;20373;-80
2022/03/08 10:57:05;;;;;;;;;;;11.30;98.90;;;;;;5053283;28;19995;-81
2022/03/08 10:59:31;;;;;;;;;;;11.30;99.10;;;;;;5054458;28;20388;-80
2022/03/08 11:01:56;;;;;;;;;;;11.60;99.50;;;;;;5054678;28;19913;-80
2022/03/08 11:04:23;;;;;;;;;;;11.50;98.60;;;;;;5054522;28;19916;-81
2022/03/08 11:06:53;;;;;;;;;;;12.40;98.00;;;;;;5054305;28;20280;-81
2022/03/08 11:09:19;;;;;;;;;;;12.90;96.90;;;;;;5054366;28;19992;-80
2022/03/08 11:11:45;;;;;;;;;;;13.20;96.20;;;;;;5054145;28;20366;-80
2022/03/08 11:14:10;;;;;;;;;;;12.90;96.00;;;;;;5054775;28;20316;-80
2022/03/08 11:16:37;;;;;;;;;;;12.80;95.80;;;;;;5054161;28;19962;-81
2022/03/08 11:19:05;;;;;;;;;;;12.60;96.20;;;;;;5054126;28;19952;-80
2022/03/08 11:21:32;;;;;;;;;;;12.70;96.70;;;;;;5054140;28;20372;-81
2022/03/08 11:23:58;;;;;;;;;;;12.60;96.40;;;;;;5054394;28;19915;-80
2022/03/08 11:26:24;;;;;;;;;;;12.50;96.90;;;;;;5054010;28;19999;-80
2022/03/08 11:28:50;;;;;;;;;;;12.80;96.30;;;;;;5054115;28;20330;-81
2022/03/08 11:31:17;;;;;;;;;;;13.00;96.60;;;;;;5053844;28;19913;-80
2022/03/08 11:33:58;;;;;;;;;;;13.10;96.10;;;;;;5053970;28;20383;-80
2022/03/08 11:36:30;;;;;;;;;;;13.30;96.20;;;;;;5053953;28;19919;-81
2022/03/08 11:39:11;;;;;;;;;;;13.50;95.80;;;;;;5053678;28;19920;-80
2022/03/08 11:41:37;;;;;;;;;;;14.00;95.40;;;;;;5053772;28;20067;-81
2022/03/08 11:44:03;;;;;;;;;;;14.20;94.80;;;;;;5053906;28;20387;-80
2022/03/08 11:46:29;;;;;;;;;;;14.70;93.70;;;;;;5054400;28;19917;-81
2022/03/08 11:48:54;;;;;;;;;;;14.90;93.00;;;;;;5054691;28;19916;-81
2022/03/08 11:51:21;;;;;;;;;;;14.90;93.80;;;;;;5052302;28;19988;-80
2022/03/08 11:53:47;;;;;;;;;;;14.40;93.80;;;;;;5053632;28;20431;-80
2022/03/08 11:56:20;;;;;;;;;;;14.60;94.30;;;;;;5052305;28;19916;-80
2022/03/08 11:58:47;;;;;;;;;;;14.50;93.80;;;;;;5052335;28;20430;-80
2022/03/08 12:01:26;;;;;;;;;;;14.40;94.00;;;;;;5053626;28;19958;-81
2022/03/08 12:03:55;;;;;;;;;;;15.00;94.60;;;;;;5053519;28;20007;-81
2022/03/08 12:06:31;;;;;;;;;;;16.00;93.70;;;;;;5053777;28;19909;-81
2022/03/08 12:09:02;;;;;;;;;;;15.80;92.70;;;;;;5053492;28;19909;-80
2022/03/08 12:11:29;;;;;;;;;;;14.90;93.70;;;;;;5052162;28;19917;-80
2022/03/08 12:13:59;;;;;;;;;;;14.20;94.60;;;;;;5053576;28;20004;-80
2022/03/08 12:16:25;;;;;;;;;;;13.40;96.10;;;;;;5053405;28;19913;-80
2022/03/08 12:18:52;;;;;;;;;;;12.80;97.70;;;;;;5053401;28;19916;-79
2022/03/08 12:21:18;;;;;;;;;;;12.30;98.90;;;;;;5052088;28;19915;-80
2022/03/08 12:23:46;;;;;;;;;;;12.10;99.90;;;;;;5052084;28;19987;-80
2022/03/08 12:26:33;;;;;;;;;;;11.80;99.90;;;;;;5053537;28;20324;-80
2022/03/08 12:29:01;;;;;;;;;;;12.00;99.90;;;;;;5053136;28;19971;-80
2022/03/08 12:31:27;;;;;;;;;;;12.10;99.90;;;;;;5053202;28;19960;-80
2022/03/08 12:33:59;;;;;;;;;;;11.80;99.90;;;;;;5053509;28;19940;-80
2022/03/08 12:36:26;;;;;;;;;;;11.80;99.90;;;;;;5053206;28;19913;-80
2022/03/08 12:38:52;;;;;;;;;;;11.70;99.90;;;;;;5052814;28;20281;-80
2022/03/08 12:41:23;;;;;;;;;;;11.50;99.90;;;;;;5051856;28;19913;-80
2022/03/08 12:43:56;;;;;;;;;;;11.30;99.90;;;;;;5052735;28;19909;-79
2022/03/08 12:46:22;;;;;;;;;;;11.70;99.90;;;;;;5057181;28;20368;-80
2022/03/08 12:48:48;;;;;;;;;;;11.80;99.90;;;;;;5057004;28;19916;-79
2022/03/08 12:51:14;;;;;;;;;;;11.70;99.90;;;;;;5056858;28;20116;-80
2022/03/08 12:53:40;;;;;;;;;;;11.60;99.90;;;;;;5056852;28;20327;-80
2022/03/08 12:56:12;;;;;;;;;;;11.50;99.90;;;;;;5056850;28;20365;-79
2022/03/08 12:58:39;;;;;;;;;;;11.30;99.90;;;;;;5055445;28;19923;-80
2022/03/08 13:01:06;;;;;;;;;;;11.20;99.90;;;;;;5055387;28;20005;-80
2022/03/08 13:03:35;;;;;;;;;;;11.30;99.90;;;;;;5056687;28;19909;-80
2022/03/08 13:06:02;;;;;;;;;;;11.20;99.90;;;;;;5056656;28;19912;-80
2022/03/08 13:08:29;;;;;;;;;;;11.10;99.90;;;;;;5056766;28;20280;-80
2022/03/08 13:10:59;;;;;;;;;;;11.10;99.90;;;;;;5056411;28;19917;-80
2022/03/08 13:13:24;;;;;;;;;;;11.20;99.90;;;;;;5055135;28;19913;-79
2022/03/08 13:15:51;;;;;;;;;;;11.10;99.90;;;;;;5055113;28;19916;-80
2022/03/08 13:18:37;;;;;;;;;;;11.20;99.90;;;;;;5055158;28;19916;-79
2022/03/08 13:21:04;;;;;;;;;;;11.30;99.90;;;;;;5056227;28;19916;-80
2022/03/08 13:23:39;;;;;;;;;;;11.50;99.90;;;;;;5056473;28;20003;-80
2022/03/08 13:26:07;;;;;;;;;;;11.70;99.90;;;;;;5056440;28;19909;-80
2022/03/08 13:28:41;;;;;;;;;;;11.90;99.90;;;;;;5056249;28;19913;-80
2022/03/08 13:31:08;;;;;;;;;;;12.20;99.90;;;;;;5056407;28;19958;-80
2022/03/08 13:33:45;;;;;;;;;;;12.20;99.90;;;;;;5056089;28;20041;-80
2022/03/08 13:36:12;;;;;;;;;;;12.30;99.90;;;;;;5054587;28;19916;-79
2022/03/08 13:38:41;;;;;;;;;;;12.50;99.90;;;;;;5055857;28;19990;-80
2022/03/08 13:41:14;;;;;;;;;;;12.80;99.90;;;;;;5055975;28;19916;-80
2022/03/08 13:43:41;;;;;;;;;;;13.20;99.90;;;;;;5056555;28;19909;-80
2022/03/08 13:46:09;;;;;;;;;;;12.80;99.90;;;;;;5055845;28;19913;-80
2022/03/08 13:48:42;;;;;;;;;;;12.80;99.90;;;;;;5054461;28;20079;-80
2022/03/08 13:51:09;;;;;;;;;;;12.90;99.90;;;;;;5055722;28;19912;-81
2022/03/08 13:53:35;;;;;;;;;;;12.90;99.90;;;;;;5054360;28;19920;-81
2022/03/08 13:56:01;;;;;;;;;;;13.20;99.90;;;;;;5053138;28;19908;-80
2022/03/08 13:58:33;;;;;;;;;;;13.20;99.90;;;;;;5055669;28;19917;-79
2022/03/08 14:00:59;;;;;;;;;;;13.90;99.90;;;;;;5055580;28;19909;-81
2022/03/08 14:03:25;;;;;;;;;;;14.20;99.90;;;;;;5055742;28;20019;-79
2022/03/08 14:05:53;;;;;;;;;;;14.70;99.90;;;;;;5055541;28;19912;-81
2022/03/08 14:08:32;;;;;;;;;;;14.40;99.90;;;;;;5055417;28;19948;-79
2022/03/08 14:11:06;;;;;;;;;;;14.10;99.90;;;;;;5055822;28;19963;-79
2022/03/08 14:13:33;;;;;;;;;;;14.40;99.80;;;;;;5055324;28;19916;-80
2022/03/08 14:16:02;;;;;;;;;;;14.40;99.70;;;;;;5055464;28;19909;-80
2022/03/08 14:18:28;;;;;;;;;;;14.20;99.90;;;;;;5053971;28;20000;-79
2022/03/08 14:20:54;;;;;;;;;;;13.60;99.90;;;;;;5055466;28;19936;-81
2022/03/08 14:23:20;;;;;;;;;;;14.10;99.90;;;;;;5055220;28;19915;-81